Time;durP1;ratioP1;P1;durP2;ratioP2;P2;SDS_P1;SDS_P2;PMS_P1;PMS_P2;Temp;Humidity;BMP_temperature;BMP_pressure;BME280_temperature;BME280_humidity;BME280_pressure;Samples;Min_cycle;Max_cycle;Signal;HPM_P1;HPM_P2
2021/10/21 00:01:41;;;;;;;2.00;0.30;;;;;;;8.94;73.56;99360.47;5056122;28;20123;-79
2021/10/21 00:04:09;;;;;;;2.83;0.63;;;;;;;8.89;73.55;99377.34;5057394;28;20063;-79
2021/10/21 00:06:35;;;;;;;3.63;0.55;;;;;;;8.85;73.23;99392.22;5059702;28;20060;-79
2021/10/21 00:09:03;;;;;;;1.80;0.40;;;;;;;8.80;73.04;99387.81;5041177;28;20037;-80
2021/10/21 00:11:31;;;;;;;4.22;0.43;;;;;;;8.76;72.85;99381.44;5059492;28;20470;-80
2021/10/21 00:13:58;;;;;;;4.47;1.85;;;;;;;8.68;72.38;99404.56;5060334;28;20037;-79
2021/10/21 00:16:25;;;;;;;6.07;0.90;;;;;;;8.57;72.63;99395.25;5062792;28;20049;-79
2021/10/21 00:18:52;;;;;;;6.70;0.50;;;;;;;8.54;72.46;99418.06;5061251;28;20479;-79
2021/10/21 00:21:18;;;;;;;4.88;0.40;;;;;;;8.53;72.58;99419.22;5058319;28;20044;-80
2021/10/21 00:23:45;;;;;;;1.58;0.35;;;;;;;8.52;72.06;99425.91;5040069;28;20451;-79
2021/10/21 00:26:12;;;;;;;5.30;0.50;;;;;;;8.50;72.41;99425.44;5058291;28;20107;-79
2021/10/21 00:28:39;;;;;;;2.33;0.73;;;;;;;8.48;71.95;99436.03;5045247;28;20047;-79
2021/10/21 00:31:06;;;;;;;6.32;1.50;;;;;;;8.42;71.77;99445.75;5060823;28;20039;-79
2021/10/21 00:33:33;;;;;;;7.13;1.65;;;;;;;8.37;71.78;99446.84;5055276;28;20045;-79
2021/10/21 00:36:00;;;;;;;0.85;0.40;;;;;;;8.34;72.05;99460.59;5064905;28;20051;-79
2021/10/21 00:38:27;;;;;;;2.47;0.70;;;;;;;8.33;71.92;99473.56;5027029;28;20070;-79
2021/10/21 00:40:54;;;;;;;4.47;0.75;;;;;;;8.28;71.89;99476.63;5059973;28;20096;-79
2021/10/21 00:43:24;;;;;;;7.05;0.45;;;;;;;8.24;72.10;99481.22;5046089;28;20044;-79
2021/10/21 00:45:51;;;;;;;3.75;0.65;;;;;;;8.15;71.96;99488.91;5046652;28;20044;-79
2021/10/21 00:48:18;;;;;;;4.65;2.35;;;;;;;8.09;71.99;99492.28;5046335;28;20050;-79
2021/10/21 00:50:45;;;;;;;2.60;0.70;;;;;;;8.08;72.23;99488.72;5061553;28;20076;-78
2021/10/21 00:53:12;;;;;;;1.48;0.65;;;;;;;8.08;72.07;99504.44;5059489;28;20043;-79
2021/10/21 00:55:38;;;;;;;2.53;0.70;;;;;;;8.05;72.10;99505.19;5064053;28;20048;-79
2021/10/21 00:58:05;;;;;;;3.97;2.25;;;;;;;7.99;72.07;99521.97;5055802;28;20108;-79
2021/10/21 01:00:33;;;;;;;4.65;0.95;;;;;;;7.94;72.10;99521.47;5038529;28;20049;-79
2021/10/21 01:03:00;;;;;;;2.25;0.63;;;;;;;7.92;72.27;99524.56;5056910;28;20037;-79
2021/10/21 01:05:27;;;;;;;1.48;0.40;;;;;;;7.87;72.11;99513.03;5059934;28;20549;-78
2021/10/21 01:07:54;;;;;;;8.00;1.20;;;;;;;7.84;72.05;99531.06;5040796;28;20055;-79
2021/10/21 01:10:21;;;;;;;6.35;1.23;;;;;;;7.78;72.12;99538.00;5056342;28;20480;-79
2021/10/21 01:12:47;;;;;;;7.43;0.68;;;;;;;7.73;72.04;99543.78;5040383;28;20033;-79
2021/10/21 01:15:28;;;;;;;7.38;1.20;;;;;;;7.70;72.06;99552.78;5060043;28;20043;-79
2021/10/21 01:17:55;;;;;;;5.10;0.90;;;;;;;7.63;71.85;99555.31;5042690;28;20049;-79
2021/10/21 01:20:24;;;;;;;6.22;1.33;;;;;;;7.60;72.04;99556.03;5059924;28;20066;-79
2021/10/21 01:22:51;;;;;;;4.22;1.00;;;;;;;7.55;72.13;99570.06;5059622;28;20072;-79
2021/10/21 01:25:18;;;;;;;4.32;1.00;;;;;;;7.52;72.06;99573.53;5062952;28;20050;-79
2021/10/21 01:27:48;;;;;;;9.90;1.13;;;;;;;7.45;71.71;99581.59;5056490;28;20120;-79
2021/10/21 01:30:20;;;;;;;8.23;1.20;;;;;;;7.43;71.74;99583.13;5061763;28;20054;-79
2021/10/21 01:32:48;;;;;;;4.00;0.80;;;;;;;7.44;71.71;99599.25;5041592;28;20041;-79
2021/10/21 01:35:15;;;;;;;7.10;2.33;;;;;;;7.42;71.64;99600.78;5059005;28;20040;-79
2021/10/21 01:37:42;;;;;;;7.57;0.82;;;;;;;7.41;71.66;99607.44;5058252;28;20045;-79
2021/10/21 01:40:11;;;;;;;3.45;1.00;;;;;;;7.38;71.60;99617.22;5061347;28;20132;-79
2021/10/21 01:42:39;;;;;;;2.90;0.85;;;;;;;7.34;71.55;99625.38;5059899;28;20044;-79
2021/10/21 01:45:20;;;;;;;5.95;1.00;;;;;;;7.28;71.38;99623.22;5062903;28;20102;-79
2021/10/21 01:47:47;;;;;;;6.32;1.38;;;;;;;7.27;71.81;99618.88;5065293;28;20041;-79
2021/10/21 01:50:15;;;;;;;8.90;0.90;;;;;;;7.24;71.85;99631.38;5065198;28;20045;-79
2021/10/21 01:52:42;;;;;;;8.45;1.45;;;;;;;7.22;71.73;99639.19;5048150;28;20036;-79
2021/10/21 01:55:11;;;;;;;5.95;0.90;;;;;;;7.21;71.78;99645.03;5064547;28;20071;-79
2021/10/21 01:57:38;;;;;;;8.38;2.47;;;;;;;7.20;71.79;99652.47;5043539;28;20411;-78
2021/10/21 02:00:07;;;;;;;4.95;1.85;;;;;;;7.21;71.80;99654.09;5064839;28;20044;-79
2021/10/21 02:02:34;;;;;;;5.22;2.30;;;;;;;7.19;71.61;99667.41;5064426;28;20041;-80
2021/10/21 02:05:01;;;;;;;8.95;1.73;;;;;;;7.16;71.63;99670.06;5065311;28;20044;-79
2021/10/21 02:07:28;;;;;;;8.25;1.17;;;;;;;7.14;71.75;99664.09;5045775;28;20045;-79
2021/10/21 02:09:55;;;;;;;7.78;1.30;;;;;;;7.13;71.68;99668.00;5047828;28;20071;-78
2021/10/21 02:12:21;;;;;;;8.20;0.98;;;;;;;7.14;71.74;99675.13;5041726;28;20128;-79
2021/10/21 02:14:48;;;;;;;8.13;1.15;;;;;;;7.13;71.88;99673.50;5062129;28;20045;-79
2021/10/21 02:17:15;;;;;;;5.45;1.23;;;;;;;7.09;71.74;99689.13;5043474;28;20059;-79
2021/10/21 02:19:42;;;;;;;7.38;1.27;;;;;;;7.06;71.87;99685.09;5061388;28;20043;-78
2021/10/21 02:22:08;;;;;;;5.53;1.50;;;;;;;7.05;71.98;99688.19;5046453;28;20052;-78
2021/10/21 02:24:35;;;;;;;4.90;1.77;;;;;;;7.04;71.99;99698.38;5027390;28;20492;-79
2021/10/21 02:27:02;;;;;;;9.32;1.95;;;;;;;7.00;71.78;99696.69;5062785;28;20076;-79
2021/10/21 02:29:28;;;;;;;4.35;1.08;;;;;;;7.00;72.07;99711.25;5046676;28;20411;-79
2021/10/21 02:31:55;;;;;;;7.65;1.83;;;;;;;7.00;71.78;99719.50;5062401;28;20132;-79
2021/10/21 02:34:22;;;;;;;4.25;0.60;;;;;;;6.98;72.07;99721.81;5047538;28;20043;-79
2021/10/21 02:36:49;;;;;;;7.18;0.80;;;;;;;6.98;71.54;99737.50;5065061;28;20040;-80
2021/10/21 02:39:15;;;;;;;5.93;1.23;;;;;;;6.97;71.76;99755.97;5044111;28;20061;-79
2021/10/21 02:41:42;;;;;;;5.55;1.63;;;;;;;6.93;71.80;99751.50;5063903;28;20037;-79
2021/10/21 02:44:09;;;;;;;8.35;1.90;;;;;;;6.92;72.12;99771.91;5062174;28;20044;-78
2021/10/21 02:46:36;;;;;;;5.13;1.20;;;;;;;6.92;72.10;99772.72;5026957;28;20056;-79
2021/10/21 02:49:03;;;;;;;5.35;1.15;;;;;;;6.93;71.73;99777.09;5041629;28;20408;-78
2021/10/21 02:51:30;;;;;;;4.65;1.00;;;;;;;6.89;72.09;99786.34;5062552;28;20048;-78
2021/10/21 02:53:57;;;;;;;5.35;1.48;;;;;;;6.85;71.55;99786.25;5058160;28;20056;-79
2021/10/21 02:56:24;;;;;;;4.53;0.98;;;;;;;6.83;71.71;99794.03;5062111;28;20408;-79
2021/10/21 02:58:50;;;;;;;3.58;1.00;;;;;;;6.79;71.79;99800.56;5059195;28;20037;-78
2021/10/21 03:01:17;;;;;;;7.60;1.00;;;;;;;6.79;71.67;99795.06;5060239;28;20071;-79
2021/10/21 03:03:48;;;;;;;3.38;0.70;;;;;;;6.78;71.75;99804.47;5061988;28;20041;-79
2021/10/21 03:06:15;;;;;;;5.35;1.13;;;;;;;6.77;71.73;99816.63;5046023;28;20399;-79
2021/10/21 03:08:42;;;;;;;5.97;0.98;;;;;;;6.73;71.79;99819.25;5066291;28;20063;-79
2021/10/21 03:11:08;;;;;;;5.75;1.10;;;;;;;6.72;71.81;99826.69;5044092;28;20041;-79
2021/10/21 03:13:35;;;;;;;6.03;1.10;;;;;;;6.69;71.78;99824.63;5027227;28;20071;-79
2021/10/21 03:16:02;;;;;;;7.93;1.10;;;;;;;6.65;71.68;99839.41;5062515;28;20048;-79
2021/10/21 03:18:28;;;;;;;9.13;0.98;;;;;;;6.63;71.84;99848.00;5060535;28;20084;-79
2021/10/21 03:20:56;;;;;;;12.65;1.25;;;;;;;6.67;71.75;99859.91;5039728;28;20052;-79
2021/10/21 03:23:25;;;;;;;4.32;1.00;;;;;;;6.68;71.74;99858.78;5046522;28;20041;-79
2021/10/21 03:25:53;;;;;;;8.63;1.20;;;;;;;6.65;71.64;99866.91;5029170;28;20047;-79
2021/10/21 03:28:20;;;;;;;7.65;1.17;;;;;;;6.64;71.73;99882.63;5046474;28;20036;-79
2021/10/21 03:30:47;;;;;;;5.45;0.95;;;;;;;6.66;71.53;99882.25;5065357;28;20041;-79
2021/10/21 03:33:14;;;;;;;6.65;0.70;;;;;;;6.59;71.38;99885.56;5061999;28;20052;-79
2021/10/21 03:35:41;;;;;;;10.73;1.23;;;;;;;6.56;71.66;99902.75;5061072;28;20510;-79
2021/10/21 03:38:08;;;;;;;9.23;1.52;;;;;;;6.56;71.72;99907.44;5062402;28;20131;-79
2021/10/21 03:40:35;;;;;;;5.90;1.15;;;;;;;6.56;71.65;99922.00;5065333;28;20041;-79
2021/10/21 03:43:02;;;;;;;3.10;1.92;;;;;;;6.56;71.79;99926.69;5061570;28;20370;-79
2021/10/21 03:45:29;;;;;;;6.05;1.10;;;;;;;6.50;71.86;99937.09;5064518;28;20051;-79
2021/10/21 03:47:56;;;;;;;7.75;1.30;;;;;;;6.52;71.80;99947.75;5061861;28;20680;-79
2021/10/21 03:50:22;;;;;;;5.65;1.58;;;;;;;6.54;71.87;99943.53;5062164;28;20036;-79
2021/10/21 03:52:49;;;;;;;6.22;1.33;;;;;;;6.50;71.99;99948.09;5060673;28;20141;-79
2021/10/21 03:55:16;;;;;;;6.93;0.93;;;;;;;6.48;71.87;99960.59;5063865;28;20071;-79
2021/10/21 03:57:43;;;;;;;7.03;0.98;;;;;;;6.50;72.13;99966.53;5041911;28;20037;-79
2021/10/21 04:00:10;;;;;;;6.80;1.77;;;;;;;6.48;72.04;99977.88;5059689;28;20044;-79
2021/10/21 04:02:38;;;;;;;4.95;1.10;;;;;;;6.50;71.74;99975.59;5058097;28;20053;-79
2021/10/21 04:05:08;;;;;;;8.27;2.33;;;;;;;6.50;71.86;99989.34;5062006;28;20044;-78
2021/10/21 04:07:35;;;;;;;12.00;0.98;;;;;;;6.46;72.13;99991.16;5041005;28;20381;-79
2021/10/21 04:10:03;;;;;;;6.95;1.30;;;;;;;6.44;71.84;99998.94;5056207;28;20073;-79
2021/10/21 04:12:31;;;;;;;5.47;0.93;;;;;;;6.41;71.99;100005.09;5060756;28;20545;-79
2021/10/21 04:14:58;;;;;;;6.93;1.05;;;;;;;6.42;72.13;100025.97;5046652;28;20044;-79
2021/10/21 04:17:25;;;;;;;8.52;2.03;;;;;;;6.39;72.21;100018.38;5044307;28;20054;-79
2021/10/21 04:19:51;;;;;;;7.43;0.80;;;;;;;6.40;71.99;100020.00;5046151;28;20044;-78
2021/10/21 04:22:18;;;;;;;12.73;2.03;;;;;;;6.38;72.30;100027.75;5041267;28;20051;-79
2021/10/21 04:24:45;;;;;;;6.05;1.10;;;;;;;6.33;72.15;100027.97;5050406;28;20508;-79
2021/10/21 04:27:12;;;;;;;7.38;1.67;;;;;;;6.33;72.15;100040.91;5060553;28;20572;-79
2021/10/21 04:29:39;;;;;;;4.70;0.85;;;;;;;6.33;72.22;100041.69;5062609;28;20043;-79
2021/10/21 04:32:09;;;;;;;5.88;1.10;;;;;;;6.31;72.40;100054.16;5043458;28;20797;-79
2021/10/21 04:34:36;;;;;;;8.85;1.80;;;;;;;6.29;72.24;100061.97;5062344;28;20036;-79
2021/10/21 04:37:03;;;;;;;4.97;1.60;;;;;;;6.31;72.30;100062.41;5041572;28;20045;-79
2021/10/21 04:39:30;;;;;;;12.07;1.48;;;;;;;6.31;72.32;100076.16;5056242;28;20090;-79
2021/10/21 04:41:56;;;;;;;4.38;1.20;;;;;;;6.30;72.22;100089.09;5058280;28;20032;-79
2021/10/21 04:44:23;;;;;;;4.30;0.90;;;;;;;6.30;72.93;100086.34;5059349;28;20059;-79
2021/10/21 04:46:50;;;;;;;4.97;0.90;;;;;;;6.25;72.57;100094.78;5041838;28;20040;-80
2021/10/21 04:49:17;;;;;;;6.50;1.05;;;;;;;6.25;72.59;100107.75;5041878;28;20120;-79
2021/10/21 04:51:43;;;;;;;9.05;1.10;;;;;;;6.24;72.51;100115.19;5045110;28;20049;-79
2021/10/21 04:54:10;;;;;;;5.85;1.00;;;;;;;6.23;72.77;100123.75;5063806;28;20133;-79
2021/10/21 04:56:37;;;;;;;3.47;0.85;;;;;;;6.19;72.55;100120.88;5041518;28;20492;-79
2021/10/21 04:59:04;;;;;;;5.18;1.20;;;;;;;6.20;72.62;100125.22;5061902;28;20036;-80
2021/10/21 05:01:32;;;;;;;4.53;1.30;;;;;;;6.20;72.76;100141.72;5056736;28;20068;-79
2021/10/21 05:03:59;;;;;;;9.95;1.58;;;;;;;6.18;72.57;100154.97;5059200;28;20040;-78
2021/10/21 05:06:26;;;;;;;7.97;1.17;;;;;;;6.15;72.88;100147.41;5060886;28;20045;-79
2021/10/21 05:08:53;;;;;;;6.43;0.90;;;;;;;6.15;72.61;100155.63;5057250;28;20046;-78
2021/10/21 05:11:20;;;;;;;3.80;1.98;;;;;;;6.11;72.98;100160.19;5058267;28;20480;-79
2021/10/21 05:13:46;;;;;;;7.43;0.93;;;;;;;6.11;72.67;100165.69;5061707;28;20389;-79
2021/10/21 05:16:13;;;;;;;3.70;0.63;;;;;;;6.08;72.93;100177.34;5063076;28;20041;-79
2021/10/21 05:18:41;;;;;;;5.80;0.70;;;;;;;6.05;73.05;100183.50;5046487;28;20041;-80
2021/10/21 05:21:07;;;;;;;5.35;0.70;;;;;;;6.04;72.90;100193.66;5065458;28;20048;-79
2021/10/21 05:23:34;;;;;;;4.15;0.80;;;;;;;6.03;73.29;100202.25;5067541;28;20133;-79
2021/10/21 05:26:01;;;;;;;2.28;1.05;;;;;;;6.00;73.28;100208.41;5065688;28;20457;-78
2021/10/21 05:28:28;;;;;;;8.70;0.73;;;;;;;5.97;73.15;100231.84;5048432;28;20127;-79
2021/10/21 05:30:55;;;;;;;7.40;1.10;;;;;;;5.95;73.07;100228.63;5018729;28;20489;-78
2021/10/21 05:33:23;;;;;;;7.15;1.45;;;;;;;5.99;73.09;100226.00;5060934;28;20154;-78
2021/10/21 05:35:50;;;;;;;6.22;1.30;;;;;;;5.99;73.29;100234.25;5046490;28;20048;-78
2021/10/21 05:38:17;;;;;;;6.50;1.45;;;;;;;6.02;73.25;100241.84;5060089;28;20057;-78
2021/10/21 05:40:44;;;;;;;6.43;1.20;;;;;;;5.98;73.57;100238.16;5062765;28;20115;-79
2021/10/21 05:43:11;;;;;;;6.18;1.00;;;;;;;5.97;73.68;100251.06;5063852;28;20047;-79
2021/10/21 05:45:38;;;;;;;5.88;0.88;;;;;;;5.99;73.27;100256.22;5046860;28;20049;-79
2021/10/21 05:48:04;;;;;;;5.93;1.00;;;;;;;5.95;73.25;100261.59;5045636;28;20045;-79
2021/10/21 05:50:31;;;;;;;3.42;0.90;;;;;;;5.95;73.61;100280.00;5050093;28;20408;-79
2021/10/21 05:52:58;;;;;;;8.73;1.33;;;;;;;5.92;73.70;100281.47;5062996;28;20131;-79
2021/10/21 05:55:25;;;;;;;6.07;0.95;;;;;;;5.97;73.35;100302.47;5048940;28;20519;-79
2021/10/21 05:57:53;;;;;;;6.68;1.65;;;;;;;5.95;73.72;100293.75;5066468;28;20047;-79
2021/10/21 06:00:20;;;;;;;5.43;0.98;;;;;;;5.95;73.50;100294.56;5066167;28;20049;-79
2021/10/21 06:02:47;;;;;;;4.53;1.02;;;;;;;5.96;73.39;100287.91;5063577;28;20419;-78
2021/10/21 06:05:13;;;;;;;7.03;1.48;;;;;;;5.95;73.53;100293.75;5061472;28;20048;-79
2021/10/21 06:07:40;;;;;;;5.07;0.98;;;;;;;5.92;73.48;100303.44;5046814;28;20149;-79
2021/10/21 06:10:08;;;;;;;6.97;1.58;;;;;;;5.88;73.97;100304.41;5065212;28;20475;-79
2021/10/21 06:12:34;;;;;;;8.45;1.20;;;;;;;5.89;73.91;100317.84;5050283;28;20147;-79
2021/10/21 06:15:04;;;;;;;13.60;4.75;;;;;;;5.89;73.67;100317.00;5042042;28;20052;-79
2021/10/21 06:17:31;;;;;;;8.90;1.17;;;;;;;5.89;73.66;100311.53;5060851;28;20075;-79
2021/10/21 06:19:57;;;;;;;7.65;1.17;;;;;;;5.86;73.97;100318.47;5046641;28;20488;-79
2021/10/21 06:22:24;;;;;;;5.30;1.00;;;;;;;5.84;73.76;100331.69;5040364;28;20041;-79
2021/10/21 06:24:51;;;;;;;6.25;1.45;;;;;;;5.82;74.05;100333.16;5062975;28;20041;-79
2021/10/21 06:27:18;;;;;;;3.97;1.08;;;;;;;5.83;74.02;100329.25;5064714;28;20040;-79
2021/10/21 06:29:44;;;;;;;9.50;1.35;;;;;;;5.84;73.99;100344.63;5042588;28;20046;-79
2021/10/21 06:32:11;;;;;;;5.88;1.23;;;;;;;5.84;73.83;100337.19;5065835;28;20051;-79
2021/10/21 06:34:42;;;;;;;9.30;1.17;;;;;;;5.82;73.88;100355.94;5047521;28;20048;-79
2021/10/21 06:37:09;;;;;;;10.20;1.55;;;;;;;5.80;74.22;100368.38;5020348;28;20038;-79
2021/10/21 06:39:35;;;;;;;7.22;1.27;;;;;;;5.79;73.98;100369.50;5041363;28;20033;-80
2021/10/21 06:42:02;;;;;;;10.73;2.63;;;;;;;5.82;74.26;100371.63;5063678;28;20040;-78
2021/10/21 06:44:29;;;;;;;6.43;1.05;;;;;;;5.82;74.03;100379.84;5064230;28;20053;-79
2021/10/21 06:46:56;;;;;;;8.15;1.55;;;;;;;5.82;74.13;100393.59;5065201;28;20068;-79
2021/10/21 06:49:23;;;;;;;7.60;1.08;;;;;;;5.80;74.09;100401.34;5066339;28;20059;-79
2021/10/21 06:51:50;;;;;;;4.18;1.02;;;;;;;5.81;74.13;100403.75;5065148;28;20047;-79
2021/10/21 06:54:20;;;;;;;2.65;0.93;;;;;;;5.83;73.84;100400.69;5062367;28;20907;-82
2021/10/21 06:56:47;;;;;;;4.50;1.70;;;;;;;5.81;73.86;100408.44;5042968;28;20059;-79
2021/10/21 06:59:14;;;;;;;12.32;1.67;;;;;;;5.82;74.13;100410.06;5058343;28;20154;-79
2021/10/21 07:01:41;;;;;;;6.03;1.73;;;;;;;5.81;74.00;100411.19;5057711;28;20086;-79
2021/10/21 07:04:08;;;;;;;6.15;1.52;;;;;;;5.82;73.79;100423.81;5057892;28;20127;-79
2021/10/21 07:06:35;;;;;;;9.02;1.15;;;;;;;5.81;73.79;100431.22;5045492;28;20558;-79
2021/10/21 07:09:02;;;;;;;6.43;2.20;;;;;;;5.83;74.13;100442.69;5058821;28;20072;-78
2021/10/21 07:11:30;;;;;;;8.75;1.48;;;;;;;5.84;74.02;100449.00;5061256;28;20051;-79
2021/10/21 07:13:58;;;;;;;5.43;1.50;;;;;;;5.85;73.88;100453.41;5064546;28;20441;-79
2021/10/21 07:16:25;;;;;;;6.05;1.20;;;;;;;5.85;74.08;100459.69;5044857;28;20044;-79
2021/10/21 07:18:52;;;;;;;5.72;1.40;;;;;;;5.86;74.13;100468.75;5062499;28;20048;-80
2021/10/21 07:21:19;;;;;;;10.90;1.40;;;;;;;5.90;73.99;100475.25;5060175;28;20489;-79
2021/10/21 07:23:46;;;;;;;5.90;1.67;;;;;;;5.91;73.83;100485.09;5046409;28;20040;-80
2021/10/21 07:26:14;;;;;;;9.68;1.60;;;;;;;5.92;74.03;100487.53;5063605;28;20040;-80
2021/10/21 07:28:40;;;;;;;11.20;2.20;;;;;;;5.94;73.98;100501.75;5039290;28;20037;-78
2021/10/21 07:31:09;;;;;;;7.63;1.65;;;;;;;5.97;74.02;100508.53;5059394;28;20060;-79
2021/10/21 07:33:36;;;;;;;8.32;1.88;;;;;;;5.94;73.93;100511.91;5041148;28;20063;-80
2021/10/21 07:36:03;;;;;;;8.75;2.28;;;;;;;5.96;74.07;100512.41;5059414;28;20073;-79
2021/10/21 07:38:30;;;;;;;5.47;1.67;;;;;;;6.00;74.01;100518.91;5040899;28;20060;-79
2021/10/21 07:40:58;;;;;;;5.45;2.38;;;;;;;6.02;73.76;100519.38;5029579;28;20084;-78
2021/10/21 07:43:24;;;;;;;12.02;2.90;;;;;;;6.01;74.03;100535.06;5054645;28;20045;-79
2021/10/21 07:45:52;;;;;;;8.80;2.20;;;;;;;6.04;73.99;100539.09;5022630;28;20048;-81
2021/10/21 07:48:18;;;;;;;5.75;1.73;;;;;;;6.08;73.85;100548.34;5038989;28;20045;-78
2021/10/21 07:50:45;;;;;;;14.07;3.00;;;;;;;6.09;74.05;100553.50;5060372;28;20072;-79
2021/10/21 07:53:14;;;;;;;8.35;2.03;;;;;;;6.11;73.66;100561.44;5042389;28;20040;-80
2021/10/21 07:55:41;;;;;;;7.35;2.00;;;;;;;6.12;73.74;100565.78;5060738;28;20037;-78
2021/10/21 07:58:07;;;;;;;4.00;1.27;;;;;;;6.14;73.63;100571.78;5062216;28;20041;-78
2021/10/21 08:00:35;;;;;;;5.00;1.40;;;;;;;6.17;73.84;100573.09;5061973;28;20120;-78
2021/10/21 08:03:02;;;;;;;9.95;1.60;;;;;;;6.18;73.71;100578.25;5045108;28;20170;-78
2021/10/21 08:05:30;;;;;;;8.15;2.38;;;;;;;6.20;73.76;100581.50;5058582;28;20056;-78
2021/10/21 08:07:56;;;;;;;5.95;1.42;;;;;;;6.23;73.68;100586.34;5063330;28;20049;-78
2021/10/21 08:10:24;;;;;;;4.53;1.20;;;;;;;6.27;73.67;100603.84;5060637;28;20057;-79
2021/10/21 08:12:51;;;;;;;9.18;1.27;;;;;;;6.30;73.55;100605.94;5042961;28;20041;-79
2021/10/21 08:15:18;;;;;;;9.40;1.10;;;;;;;6.30;73.56;100611.44;5039898;28;20147;-78
2021/10/21 08:17:45;;;;;;;8.05;1.20;;;;;;;6.33;73.77;100623.75;5042079;28;20055;-78
2021/10/21 08:20:13;;;;;;;8.85;1.42;;;;;;;6.34;73.83;100612.41;5060459;28;20040;-79
2021/10/21 08:22:47;;;;;;;4.05;1.70;;;;;;;6.35;73.70;100622.31;5059233;28;20131;-78
2021/10/21 08:25:15;;;;;;;4.75;1.55;;;;;;;6.40;73.75;100632.34;5059302;28;20087;-78
2021/10/21 08:27:43;;;;;;;16.00;2.97;;;;;;;6.46;73.67;100642.84;5030050;28;20040;-78
2021/10/21 08:30:12;;;;;;;11.13;1.27;;;;;;;6.47;73.55;100652.72;5052640;28;20098;-78
2021/10/21 08:32:42;;;;;;;3.25;1.02;;;;;;;6.51;73.81;100653.69;5054214;28;20145;-78
2021/10/21 08:35:14;;;;;;;13.07;2.05;;;;;;;6.57;73.73;100657.91;5057655;28;20115;-78
2021/10/21 08:37:41;;;;;;;;;;;;;;;6.60;73.55;100673.78;5040172;28;20044;-79
2021/10/21 08:40:08;;;;;;;8.23;2.00;;;;;;;6.65;73.50;100683.81;5058267;28;19939;-78
2021/10/21 08:42:37;;;;;;;10.02;1.83;;;;;;;6.67;73.62;100695.34;5030645;28;20400;-79
2021/10/21 08:45:06;;;;;;;6.93;1.60;;;;;;;6.67;73.58;100707.13;5063662;28;20072;-78
2021/10/21 08:47:36;;;;;;;6.20;1.30;;;;;;;6.68;73.64;100714.25;5044416;28;20040;-78
2021/10/21 08:50:06;;;;;;;8.70;1.88;;;;;;;6.74;73.79;100709.41;5038199;28;20044;-82
2021/10/21 08:52:33;;;;;;;4.88;0.80;;;;;;;6.74;73.51;100718.50;5042808;28;20093;-81
2021/10/21 08:55:00;;;;;;;6.22;1.63;;;;;;;6.79;73.89;100724.97;5041874;28;20082;-79
2021/10/21 08:57:26;;;;;;;12.98;1.95;;;;;;;6.87;73.70;100737.94;5062764;28;20048;-79
2021/10/21 08:59:55;;;;;;;8.60;1.77;;;;;;;6.90;73.76;100738.09;5042733;28;20041;-79
2021/10/21 09:05:18;;;;;;;7.05;2.08;;;;;;;6.99;73.84;100727.13;5062849;28;20051;-78
2021/10/21 09:08:15;;;;;;;8.60;2.13;;;;;;;7.04;73.70;100732.47;5061076;28;20047;-79
2021/10/21 09:10:53;;;;;;;9.10;1.55;;;;;;;7.08;73.84;100742.50;5042537;28;20042;-79
2021/10/21 09:13:30;;;;;;;10.75;1.38;;;;;;;7.16;73.77;100738.13;5039089;28;20868;-79
2021/10/21 09:16:00;;;;;;;4.57;1.45;;;;;;;7.19;73.52;100751.25;5055251;28;20072;-80
2021/10/21 09:18:40;;;;;;;7.68;1.90;;;;;;;7.22;73.70;100750.63;5056125;28;20131;-79
2021/10/21 09:21:09;;;;;;;8.88;2.42;;;;;;;7.29;73.82;100767.47;5044759;28;20045;-80
2021/10/21 09:23:38;;;;;;;9.48;1.48;;;;;;;7.36;73.69;100776.03;5062270;28;20515;-79
2021/10/21 09:26:11;;;;;;;9.90;1.33;;;;;;;7.42;73.69;100783.03;5056779;28;20131;-79
2021/10/21 09:28:38;;;;;;;6.45;1.63;;;;;;;7.45;73.53;100793.41;5042797;28;20048;-79
2021/10/21 09:31:09;;;;;;;5.18;0.90;;;;;;;7.50;73.58;100795.19;5060250;28;20041;-79
2021/10/21 09:33:51;;;;;;;3.20;1.58;;;;;;;7.55;73.57;100795.81;5061558;28;20127;-79
2021/10/21 09:36:25;;;;;;;5.50;0.95;;;;;;;7.61;73.60;100802.81;5057265;28;20077;-79
2021/10/21 09:38:54;;;;;;;6.35;1.17;;;;;;;7.66;73.51;100810.09;5056505;28;20131;-79
2021/10/21 09:41:30;;;;;;;11.15;1.40;;;;;;;7.71;73.79;100813.50;5042758;28;20048;-79
2021/10/21 09:43:58;;;;;;;7.47;1.20;;;;;;;7.76;73.59;100816.09;5060778;28;20042;-79
2021/10/21 09:46:37;;;;;;;9.65;1.80;;;;;;;7.81;73.53;100824.19;5057233;28;20065;-78
2021/10/21 09:49:22;;;;;;;5.65;1.13;;;;;;;7.86;73.59;100829.53;5060572;28;20051;-79
2021/10/21 09:51:49;;;;;;;11.20;1.40;;;;;;;7.91;73.41;100823.88;5041556;28;20102;-79
2021/10/21 09:54:20;;;;;;;6.43;2.10;;;;;;;7.95;73.27;100830.34;5052075;28;20040;-78
2021/10/21 09:57:07;;;;;;;6.63;1.77;;;;;;;7.99;73.32;100834.06;5054756;28;20037;-79
2021/10/21 09:59:34;;;;;;;4.15;1.00;;;;;;;8.08;73.35;100836.00;5060636;28;20045;-79
2021/10/21 10:02:11;;;;;;;5.47;1.15;;;;;;;8.14;72.79;100848.50;5044065;28;20051;-79
2021/10/21 10:04:39;;;;;;;7.13;1.98;;;;;;;8.20;72.79;100850.78;5039876;28;20065;-79
2021/10/21 10:07:06;;;;;;;2.83;1.38;;;;;;;8.25;72.55;100845.09;5063600;28;20047;-78
2021/10/21 10:09:33;;;;;;;5.88;1.90;;;;;;;8.31;72.49;100865.06;5062494;28;20397;-79
2021/10/21 10:12:05;;;;;;;5.78;1.70;;;;;;;8.35;72.29;100861.31;5063298;28;20051;-79
2021/10/21 10:14:43;;;;;;;6.43;1.52;;;;;;;8.42;71.77;100871.84;5064613;28;20053;-79
2021/10/21 10:17:11;;;;;;;6.13;1.17;;;;;;;8.47;71.89;100868.94;5060381;28;20052;-79
2021/10/21 10:19:45;;;;;;;7.15;1.10;;;;;;;8.51;71.50;100875.41;5059132;28;20045;-79
2021/10/21 10:22:23;;;;;;;5.85;0.90;;;;;;;8.55;71.65;100873.63;5064405;28;20120;-79
2021/10/21 10:24:50;;;;;;;8.43;1.10;;;;;;;8.59;71.34;100888.38;5061257;28;20040;-78
2021/10/21 10:27:24;;;;;;;9.30;1.15;;;;;;;8.65;70.97;100886.25;5042919;28;20038;-78
2021/10/21 10:29:51;;;;;;;6.55;1.10;;;;;;;8.71;70.84;100890.47;5060041;28;20040;-80
2021/10/21 10:32:46;;;;;;;8.32;1.00;;;;;;;8.75;70.68;100900.50;5061476;28;20037;-79
2021/10/21 10:35:33;;;;;;;9.70;1.45;;;;;;;8.80;70.57;100919.66;5062091;28;20945;-80
2021/10/21 10:38:02;;;;;;;4.63;0.93;;;;;;;8.83;70.81;100909.91;5058098;28;20075;-79
2021/10/21 10:40:44;;;;;;;6.75;1.30;;;;;;;8.88;70.23;100918.81;5044873;28;20064;-79
2021/10/21 10:43:16;;;;;;;9.88;1.35;;;;;;;8.93;70.36;100921.41;5038260;28;20048;-78
2021/10/21 10:46:00;;;;;;;12.27;2.67;;;;;;;8.98;70.45;100918.47;5040051;28;20055;-78
2021/10/21 10:49:03;;;;;;;12.88;1.90;;;;;;;9.03;68.66;100920.22;5048273;28;20587;-79
2021/10/21 10:51:56;;;;;;;3.80;1.67;;;;;;;9.05;68.82;100929.78;4961575;28;20053;-79
2021/10/21 10:54:51;;;;;;;4.70;1.60;;;;;;;9.11;69.25;100934.00;5056717;28;20139;-78
2021/10/21 10:57:23;;;;;;;5.88;2.30;;;;;;;9.18;69.75;100945.38;5062166;28;20503;-79
2021/10/21 10:59:57;;;;;;;5.07;1.38;;;;;;;9.23;69.88;100957.38;5058323;28;20378;-78
2021/10/21 11:02:33;;;;;;;9.35;1.42;;;;;;;9.28;69.53;100955.22;5057317;28;20127;-76
2021/10/21 11:05:02;;;;;;;10.27;2.08;;;;;;;9.35;68.92;100971.28;5059343;28;20040;-77
2021/10/21 11:07:47;;;;;;;10.52;1.95;;;;;;;9.36;68.04;100962.69;5062546;28;20076;-77
2021/10/21 11:10:18;;;;;;;4.80;1.73;;;;;;;9.42;69.21;100966.88;5044256;28;20072;-77
2021/10/21 11:12:51;;;;;;;7.68;1.40;;;;;;;9.45;68.85;100959.88;5040252;28;20061;-76
2021/10/21 11:15:33;;;;;;;5.85;2.22;;;;;;;9.49;68.82;100958.88;5065661;28;20047;-77
2021/10/21 11:18:03;;;;;;;8.10;2.47;;;;;;;9.55;69.13;100970.56;5061044;28;20037;-77
2021/10/21 11:20:32;;;;;;;4.53;2.28;;;;;;;9.59;69.23;100977.03;5065194;28;20052;-77
2021/10/21 11:23:00;;;;;;;6.60;1.58;;;;;;;9.64;69.31;100979.59;5062697;28;20412;-77
2021/10/21 11:25:29;;;;;;;9.07;1.95;;;;;;;9.69;69.28;100973.88;5062334;28;20076;-77
2021/10/21 11:27:57;;;;;;;11.90;2.67;;;;;;;9.72;69.16;100985.09;5026049;28;20048;-77
2021/10/21 11:30:29;;;;;;;9.43;4.32;;;;;;;9.78;69.08;100981.00;5064555;28;20056;-76
2021/10/21 11:33:08;;;;;;;15.52;4.10;;;;;;;9.84;68.84;100980.81;5044153;28;20124;-77
2021/10/21 11:35:38;;;;;;;9.65;2.45;;;;;;;9.89;68.75;100977.84;5046984;28;20124;-77
2021/10/21 11:38:19;;;;;;;6.90;1.70;;;;;;;9.95;68.66;100991.16;5036890;28;20053;-78
2021/10/21 11:40:47;;;;;;;7.95;2.25;;;;;;;9.99;68.81;100986.56;5058163;28;20045;-78
2021/10/21 11:43:25;;;;;;;6.93;2.05;;;;;;;10.03;68.57;100998.59;5031389;28;20454;-78
2021/10/21 11:45:54;;;;;;;8.65;1.35;;;;;;;10.08;68.47;101005.88;5036347;28;20127;-78
2021/10/21 11:48:27;;;;;;;6.80;1.90;;;;;;;10.12;68.39;101004.88;5065300;28;20071;-78